Time;durP1;ratioP1;P1;durP2;ratioP2;P2;SDS_P1;SDS_P2;PMS_P1;PMS_P2;Temp;Humidity;BMP_temperature;BMP_pressure;BME280_temperature;BME280_humidity;BME280_pressure;Samples;Min_cycle;Max_cycle;Signal;HPM_P1;HPM_P2
2022/06/15 05:00:29;;;;;;;5.07;4.60;;;18.50;97.20;;;;;;1721619;28;20554;-68
2022/06/15 05:01:20;;;;;;;4.88;4.40;;;18.50;97.20;;;;;;1721455;28;20230;-68
2022/06/15 05:02:12;;;;;;;4.63;4.23;;;18.50;97.20;;;;;;1721438;28;20280;-68
2022/06/15 05:03:03;;;;;;;7.35;4.38;;;18.60;97.20;;;;;;1721425;28;20224;-68
2022/06/15 05:03:55;;;;;;;5.00;4.53;;;18.60;97.20;;;;;;1721388;28;20205;-68
2022/06/15 05:04:46;;;;;;;6.45;4.35;;;18.60;97.20;;;;;;1721406;28;20201;-68
2022/06/15 05:05:38;;;;;;;4.20;3.80;;;18.60;97.20;;;;;;1721347;28;20193;-69
2022/06/15 05:06:31;;;;;;;4.80;4.28;;;18.60;97.20;;;;;;1721385;28;20695;-69
2022/06/15 05:07:23;;;;;;;5.78;3.97;;;18.60;97.20;;;;;;1725160;28;20258;-68
2022/06/15 05:08:14;;;;;;;4.20;3.80;;;18.60;97.20;;;;;;1727997;28;20201;-69
2022/06/15 05:09:09;;;;;;;4.57;4.17;;;18.70;97.20;;;;;;1728147;28;20235;-69
2022/06/15 05:10:01;;;;;;;5.38;4.18;;;18.70;97.20;;;;;;1728118;28;20817;-68
2022/06/15 05:10:52;;;;;;;9.63;4.43;;;18.70;97.20;;;;;;1728076;28;20320;-68
2022/06/15 05:11:44;;;;;;;5.97;4.40;;;18.70;97.20;;;;;;1728112;28;20200;-68
2022/06/15 05:12:35;;;;;;;5.30;4.78;;;18.70;97.20;;;;;;1728093;28;20200;-69
2022/06/15 05:13:26;;;;;;;4.68;4.20;;;18.70;97.20;;;;;;1728092;28;20215;-68
2022/06/15 05:14:18;;;;;;;4.70;4.30;;;18.80;97.20;;;;;;1728107;28;20295;-67
2022/06/15 05:15:10;;;;;;;4.13;3.72;;;18.80;97.20;;;;;;1727854;28;20228;-68
2022/06/15 05:16:03;;;;;;;4.35;3.95;;;18.80;97.20;;;;;;1728021;28;20652;-68
2022/06/15 05:16:54;;;;;;;4.45;3.80;;;18.80;97.20;;;;;;1727399;28;20204;-68
2022/06/15 05:17:47;;;;;;;4.50;4.10;;;18.90;97.20;;;;;;1721363;28;20280;-67
2022/06/15 05:18:38;;;;;;;4.28;3.88;;;18.90;97.20;;;;;;1721282;28;20216;-67
2022/06/15 05:19:30;;;;;;;4.53;4.13;;;18.90;97.20;;;;;;1721397;28;20243;-68
2022/06/15 05:20:21;;;;;;;5.13;4.70;;;18.90;97.20;;;;;;1721369;28;20452;-68
2022/06/15 05:21:13;;;;;;;4.73;4.13;;;18.90;97.20;;;;;;1721322;28;20292;-68
2022/06/15 05:22:04;;;;;;;5.80;4.63;;;18.90;97.20;;;;;;1721286;28;20950;-68
2022/06/15 05:22:55;;;;;;;5.43;4.40;;;19.00;97.20;;;;;;1721306;28;20619;-67
2022/06/15 05:23:46;;;;;;;4.20;3.80;;;19.00;97.20;;;;;;1721330;28;20567;-67
2022/06/15 05:24:38;;;;;;;3.70;3.40;;;19.00;97.20;;;;;;1721204;28;20323;-67
2022/06/15 05:25:29;;;;;;;4.20;3.80;;;19.00;97.20;;;;;;1721222;28;20205;-68
2022/06/15 05:26:24;;;;;;;6.60;4.40;;;19.10;97.20;;;;;;1721247;28;20225;-67
2022/06/15 05:27:15;;;;;;;5.75;4.60;;;19.10;97.20;;;;;;1723269;28;20198;-68
2022/06/15 05:28:08;;;;;;;4.33;4.00;;;19.10;97.20;;;;;;1727935;28;20295;-68
2022/06/15 05:28:59;;;;;;;5.50;4.15;;;19.10;97.20;;;;;;1727930;28;20204;-68
2022/06/15 05:29:50;;;;;;;4.53;4.03;;;19.20;97.20;;;;;;1728071;28;20283;-68
2022/06/15 05:30:41;;;;;;;4.85;4.00;;;19.20;97.20;;;;;;1728003;28;20479;-68
2022/06/15 05:31:35;;;;;;;5.40;4.07;;;19.20;97.20;;;;;;1727969;28;20197;-68
2022/06/15 05:32:26;;;;;;;5.05;3.95;;;19.20;97.20;;;;;;1728035;28;20211;-68
2022/06/15 05:33:18;;;;;;;6.07;3.92;;;19.30;97.20;;;;;;1727914;28;20619;-68
2022/06/15 05:34:09;;;;;;;4.97;4.40;;;19.30;97.20;;;;;;1728081;28;20591;-68
2022/06/15 05:35:01;;;;;;;3.90;3.50;;;19.30;97.20;;;;;;1727880;28;20307;-68
2022/06/15 05:35:52;;;;;;;4.00;3.60;;;19.30;97.20;;;;;;1727818;28;20224;-68
2022/06/15 05:36:44;;;;;;;5.73;4.43;;;19.40;97.20;;;;;;1727655;28;20671;-68
2022/06/15 05:37:35;;;;;;;4.50;4.00;;;19.40;97.20;;;;;;1722714;28;20208;-68
2022/06/15 05:38:27;;;;;;;4.57;4.18;;;19.40;97.20;;;;;;1721096;28;20280;-68
2022/06/15 05:39:18;;;;;;;4.38;3.97;;;19.40;97.20;;;;;;1721147;28;20212;-68
2022/06/15 05:40:11;;;;;;;4.83;4.17;;;19.40;97.20;;;;;;1721224;28;20201;-67
2022/06/15 05:41:02;;;;;;;4.63;4.00;;;19.50;97.20;;;;;;1721148;28;20568;-68
2022/06/15 05:41:53;;;;;;;4.50;3.90;;;19.50;97.20;;;;;;1721185;28;20223;-68
2022/06/15 05:42:44;;;;;;;4.38;3.97;;;19.50;97.20;;;;;;1721162;28;20205;-68
2022/06/15 05:43:37;;;;;;;4.07;3.73;;;19.50;97.20;;;;;;1721140;28;20280;-68
2022/06/15 05:44:32;;;;;;;4.85;4.32;;;19.50;97.20;;;;;;1721101;28;20205;-68
2022/06/15 05:45:23;;;;;;;5.22;4.13;;;19.50;97.20;;;;;;1721058;28;20197;-68
2022/06/15 05:46:18;;;;;;;4.65;3.85;;;19.50;97.20;;;;;;1720998;28;20204;-68
2022/06/15 05:47:11;;;;;;;4.80;3.80;;;19.50;97.20;;;;;;1721995;28;20228;-68
2022/06/15 05:48:02;;;;;;;4.53;4.05;;;19.50;97.20;;;;;;1727837;28;20218;-68
2022/06/15 05:48:55;;;;;;;4.50;3.50;;;19.50;97.20;;;;;;1727829;28;20196;-67
2022/06/15 05:49:46;;;;;;;4.30;3.90;;;19.50;97.20;;;;;;1727890;28;20452;-67
2022/06/15 05:50:38;;;;;;;6.22;4.30;;;19.60;97.20;;;;;;1725291;28;20188;-69
2022/06/15 05:51:29;;;;;;;4.35;3.33;;;19.50;97.20;;;;;;1721031;28;20213;-68
2022/06/15 05:52:21;;;;;;;4.18;3.88;;;19.60;97.20;;;;;;1721137;28;20574;-67
2022/06/15 05:53:11;;;;;;;4.00;3.65;;;19.60;97.20;;;;;;1721129;28;20219;-68
2022/06/15 05:54:05;;;;;;;7.20;4.20;;;19.60;97.20;;;;;;1721071;28;20208;-68
2022/06/15 05:54:58;;;;;;;6.45;3.90;;;19.60;97.20;;;;;;1720947;28;20226;-68
2022/06/15 05:55:49;;;;;;;5.22;4.00;;;19.60;97.20;;;;;;1720905;28;20315;-68
2022/06/15 05:56:40;;;;;;;6.40;3.78;;;19.60;97.20;;;;;;1720761;28;20209;-68
2022/06/15 05:57:32;;;;;;;8.10;4.10;;;19.60;97.20;;;;;;1720976;28;20232;-68
2022/06/15 05:58:23;;;;;;;4.43;3.63;;;19.70;97.20;;;;;;1721024;28;20205;-68
2022/06/15 05:59:15;;;;;;;5.10;4.30;;;19.70;97.20;;;;;;1721048;28;20207;-69
2022/06/15 06:00:09;;;;;;;4.80;3.80;;;19.70;97.20;;;;;;1721071;28;20201;-68
2022/06/15 06:01:08;;;;;;;5.45;4.40;;;19.80;97.20;;;;;;1725237;28;20258;-68
2022/06/15 06:01:58;;;;;;;6.45;4.40;;;19.80;97.20;;;;;;1727942;28;20205;-68
2022/06/15 06:02:52;;;;;;;4.77;4.30;;;19.80;97.20;;;;;;1727842;28;20228;-68
2022/06/15 06:03:42;;;;;;;5.75;4.00;;;19.80;97.20;;;;;;1727786;28;20204;-68
2022/06/15 06:04:34;;;;;;;6.37;4.50;;;19.90;97.20;;;;;;1727655;28;20299;-68
2022/06/15 06:05:25;;;;;;;5.68;4.10;;;19.90;97.20;;;;;;1727807;28;20204;-68
2022/06/15 06:06:17;;;;;;;5.17;4.40;;;19.90;97.20;;;;;;1727724;28;20291;-67
2022/06/15 06:07:09;;;;;;;5.05;3.85;;;19.90;97.20;;;;;;1727469;28;20200;-68
2022/06/15 06:08:01;;;;;;;6.85;4.50;;;19.90;97.20;;;;;;1727637;28;20291;-68
2022/06/15 06:08:52;;;;;;;5.53;4.25;;;19.90;97.20;;;;;;1727803;28;20200;-68
2022/06/15 06:09:44;;;;;;;5.30;3.88;;;20.00;97.20;;;;;;1727753;28;20544;-68
2022/06/15 06:10:35;;;;;;;6.03;4.90;;;20.00;97.20;;;;;;1726437;28;20204;-68
2022/06/15 06:11:28;;;;;;;6.65;3.83;;;20.00;97.20;;;;;;1720862;28;20219;-68
2022/06/15 06:12:19;;;;;;;7.78;3.90;;;20.00;97.20;;;;;;1720966;28;20209;-68
2022/06/15 06:13:11;;;;;;;4.17;3.67;;;20.00;97.20;;;;;;1720937;28;20232;-68
2022/06/15 06:14:02;;;;;;;7.53;4.10;;;20.10;97.20;;;;;;1720954;28;20575;-68
2022/06/15 06:14:53;;;;;;;4.37;3.97;;;20.10;97.20;;;;;;1720759;28;20313;-68
2022/06/15 06:15:44;;;;;;;5.80;4.43;;;20.10;97.20;;;;;;1720829;28;20236;-67
2022/06/15 06:16:36;;;;;;;5.23;4.03;;;20.10;97.20;;;;;;1720632;28;20209;-68
2022/06/15 06:17:27;;;;;;;7.95;4.18;;;20.10;97.20;;;;;;1720857;28;20224;-68
2022/06/15 06:18:20;;;;;;;4.57;4.10;;;20.10;97.20;;;;;;1720859;28;20295;-67
2022/06/15 06:19:11;;;;;;;4.03;3.60;;;20.20;97.20;;;;;;1720902;28;20443;-68
2022/06/15 06:20:03;;;;;;;3.80;3.37;;;20.20;97.20;;;;;;1721021;28;20212;-69
2022/06/15 06:20:54;;;;;;;3.67;3.35;;;20.20;97.20;;;;;;1724042;28;20283;-68
2022/06/15 06:21:45;;;;;;;3.83;3.53;;;20.20;97.20;;;;;;1727629;28;20205;-68
2022/06/15 06:22:36;;;;;;;4.97;3.55;;;20.20;97.20;;;;;;1727782;28;20955;-69
2022/06/15 06:23:28;;;;;;;5.30;4.50;;;20.30;97.20;;;;;;1727646;28;20568;-68
2022/06/15 06:24:18;;;;;;;5.05;3.90;;;20.30;97.20;;;;;;1727623;28;20208;-68
2022/06/15 06:25:11;;;;;;;5.73;4.53;;;20.30;97.20;;;;;;1727563;28;20251;-68
2022/06/15 06:26:03;;;;;;;3.75;3.40;;;20.30;97.20;;;;;;1727590;28;20339;-68
2022/06/15 06:26:58;;;;;;;4.78;3.70;;;20.30;97.20;;;;;;1727363;28;20254;-69
2022/06/15 06:27:49;;;;;;;5.20;3.65;;;20.40;97.20;;;;;;1727583;28;20577;-68
2022/06/15 06:28:41;;;;;;;4.80;3.87;;;20.40;97.20;;;;;;1727716;28;20580;-68
2022/06/15 06:29:32;;;;;;;5.10;3.90;;;20.40;97.20;;;;;;1727677;28;20205;-68
2022/06/15 06:30:23;;;;;;;4.43;4.03;;;20.40;97.20;;;;;;1727601;28;20216;-68
2022/06/15 06:31:14;;;;;;;4.50;4.10;;;20.40;97.20;;;;;;1721536;28;20456;-68
2022/06/15 06:32:07;;;;;;;4.37;3.97;;;20.40;97.20;;;;;;1720750;28;20284;-68
2022/06/15 06:32:58;;;;;;;4.85;3.75;;;20.50;97.20;;;;;;1720882;28;20803;-69
2022/06/15 06:33:51;;;;;;;4.40;3.30;;;20.40;97.20;;;;;;1720856;28;20308;-68
2022/06/15 06:34:42;;;;;;;4.20;3.70;;;20.40;97.20;;;;;;1720767;28;20209;-68
2022/06/15 06:35:34;;;;;;;4.67;3.47;;;20.50;97.20;;;;;;1720819;28;20280;-68
2022/06/15 06:36:29;;;;;;;4.68;3.70;;;20.50;97.20;;;;;;1720704;28;20480;-67
2022/06/15 06:37:21;;;;;;;5.50;3.55;;;20.50;97.20;;;;;;1720564;28;20284;-68
2022/06/15 06:38:12;;;;;;;4.70;3.90;;;20.50;97.20;;;;;;1720748;28;20212;-69
2022/06/15 06:39:10;;;;;;;7.20;4.00;;;20.50;97.20;;;;;;1720785;28;20200;-68
2022/06/15 06:40:02;;;;;;;5.75;3.90;;;20.50;97.20;;;;;;1720833;28;20208;-68
2022/06/15 06:40:55;;;;;;;5.07;3.70;;;20.50;97.20;;;;;;1723209;28;20197;-68
2022/06/15 06:41:46;;;;;;;5.90;3.90;;;20.50;97.20;;;;;;1727450;28;20600;-68
2022/06/15 06:42:38;;;;;;;4.93;4.00;;;20.60;97.20;;;;;;1727370;28;20291;-68
2022/06/15 06:43:28;;;;;;;4.30;3.70;;;20.60;97.20;;;;;;1727354;28;20447;-67
2022/06/15 06:44:20;;;;;;;5.87;4.03;;;20.60;97.20;;;;;;1727857;28;20295;-68
2022/06/15 06:45:12;;;;;;;5.43;4.35;;;20.60;97.20;;;;;;1727466;28;20224;-67
2022/06/15 06:46:05;;;;;;;5.15;4.15;;;20.60;97.20;;;;;;1727449;28;20196;-67
2022/06/15 06:46:56;;;;;;;7.13;4.30;;;20.60;97.20;;;;;;1727313;28;20201;-67
2022/06/15 06:47:48;;;;;;;4.65;4.10;;;20.70;97.20;;;;;;1727391;28;20703;-67
2022/06/15 06:48:39;;;;;;;4.60;4.20;;;20.70;97.20;;;;;;1727545;28;20200;-67
2022/06/15 06:49:33;;;;;;;5.13;3.77;;;20.70;97.20;;;;;;1727495;28;20207;-68
2022/06/15 06:50:24;;;;;;;3.85;3.40;;;20.70;97.20;;;;;;1727510;28;20270;-68
2022/06/15 06:51:16;;;;;;;3.83;3.43;;;20.70;97.20;;;;;;1721863;28;20251;-67
2022/06/15 06:52:07;;;;;;;4.00;3.70;;;20.70;97.20;;;;;;1720702;28;20212;-67
2022/06/15 06:53:00;;;;;;;5.68;4.00;;;20.80;97.20;;;;;;1720773;28;20284;-68
2022/06/15 06:53:50;;;;;;;4.40;4.00;;;20.80;97.20;;;;;;1720847;28;20722;-68
2022/06/15 06:54:42;;;;;;;4.47;3.87;;;20.80;97.20;;;;;;1720624;28;20604;-68
2022/06/15 06:55:33;;;;;;;4.65;3.83;;;20.80;97.20;;;;;;1720683;28;20228;-67
2022/06/15 06:56:25;;;;;;;4.77;3.63;;;20.80;97.20;;;;;;1720535;28;20312;-68
2022/06/15 06:57:15;;;;;;;5.18;4.20;;;20.80;97.20;;;;;;1720429;28;20586;-67
2022/06/15 06:58:08;;;;;;;3.97;3.67;;;20.90;97.20;;;;;;1720604;28;20283;-68
2022/06/15 06:59:00;;;;;;;4.60;3.60;;;20.90;97.20;;;;;;1720699;28;20197;-67
2022/06/15 06:59:50;;;;;;;4.35;3.95;;;20.90;97.20;;;;;;1720660;28;20197;-68
2022/06/15 07:00:42;;;;;;;4.30;3.50;;;20.90;97.20;;;;;;1721121;28;20288;-66
2022/06/15 07:01:34;;;;;;;5.43;3.75;;;20.90;97.20;;;;;;1727495;28;20204;-66
2022/06/15 07:02:25;;;;;;;5.45;3.78;;;20.90;97.20;;;;;;1727488;28;20235;-66
2022/06/15 07:03:16;;;;;;;3.65;3.35;;;21.00;97.20;;;;;;1727543;28;20580;-67
2022/06/15 07:04:08;;;;;;;4.40;4.00;;;21.00;97.20;;;;;;1727449;28;20354;-67
2022/06/15 07:05:02;;;;;;;4.38;3.92;;;21.00;97.20;;;;;;1727425;28;20216;-67
2022/06/15 07:05:59;;;;;;;6.43;4.15;;;21.00;97.20;;;;;;1727511;28;20207;-67
2022/06/15 07:06:50;;;;;;;4.70;3.60;;;21.00;97.20;;;;;;1727175;28;20200;-67
2022/06/15 07:07:41;;;;;;;5.30;3.67;;;21.10;97.20;;;;;;1727428;28;20211;-68
2022/06/15 07:08:33;;;;;;;4.07;3.73;;;21.10;97.20;;;;;;1727407;28;20299;-67
2022/06/15 07:09:26;;;;;;;6.40;3.70;;;21.10;97.20;;;;;;1727369;28;20204;-67
2022/06/15 07:10:18;;;;;;;3.90;3.50;;;21.10;97.20;;;;;;1727382;28;20621;-68
2022/06/15 07:11:09;;;;;;;4.15;3.70;;;21.10;97.20;;;;;;1723033;28;20197;-67
2022/06/15 07:12:01;;;;;;;5.20;4.20;;;21.20;97.20;;;;;;1720678;28;20256;-67
2022/06/15 07:12:52;;;;;;;5.00;3.80;;;21.20;97.20;;;;;;1720681;28;20208;-68
2022/06/15 07:13:45;;;;;;;4.22;3.60;;;21.20;97.20;;;;;;1720692;28;20653;-68
2022/06/15 07:14:36;;;;;;;4.30;3.90;;;21.20;97.20;;;;;;1720476;28;20683;-68
2022/06/15 07:15:27;;;;;;;5.17;3.60;;;21.20;97.20;;;;;;1743022;23;20635;-68
2022/06/15 07:16:20;;;;;;;4.40;4.00;;;21.20;97.20;;;;;;1720260;28;20232;-69
2022/06/15 07:17:12;;;;;;;3.72;3.42;;;21.30;97.20;;;;;;1720122;28;20204;-69
2022/06/15 07:18:03;;;;;;;4.60;3.35;;;21.30;97.20;;;;;;1720516;28;20212;-69
2022/06/15 07:18:55;;;;;;;6.22;3.72;;;21.30;97.20;;;;;;1720701;28;20256;-69
2022/06/15 07:19:47;;;;;;;4.53;3.50;;;21.30;97.20;;;;;;1720606;28;20201;-69
2022/06/15 07:20:40;;;;;;;3.78;3.40;;;21.30;97.20;;;;;;1720282;28;20752;-69
2022/06/15 07:21:31;;;;;;;4.72;3.60;;;21.30;97.20;;;;;;1713909;28;20205;-69
2022/06/15 07:22:23;;;;;;;5.07;4.00;;;21.30;97.20;;;;;;1713971;28;20296;-69
2022/06/15 07:23:14;;;;;;;4.13;3.72;;;21.40;97.20;;;;;;1714000;28;20221;-69
2022/06/15 07:24:07;;;;;;;3.77;3.20;;;21.40;97.20;;;;;;1713898;28;20243;-69
2022/06/15 07:24:58;;;;;;;5.57;3.90;;;21.40;97.20;;;;;;1713981;28;20205;-71
2022/06/15 07:25:50;;;;;;;4.55;3.72;;;21.50;97.20;;;;;;1718279;28;20260;-69
2022/06/15 07:26:45;;;;;;;4.57;3.72;;;21.50;97.20;;;;;;1720349;28;20668;-69
2022/06/15 07:27:38;;;;;;;5.82;4.28;;;21.50;97.20;;;;;;1717221;28;20209;-69
2022/06/15 07:28:30;;;;;;;3.60;3.30;;;21.50;97.20;;;;;;1713885;28;20209;-69
2022/06/15 07:29:22;;;;;;;4.75;3.88;;;21.50;97.20;;;;;;1713826;28;20210;-69
2022/06/15 07:30:17;;;;;;;4.65;4.18;;;21.60;97.20;;;;;;1713906;28;20202;-69
2022/06/15 07:31:09;;;;;;;5.07;3.95;;;21.60;97.20;;;;;;1713834;28;20212;-69
2022/06/15 07:32:00;;;;;;;4.05;3.30;;;21.60;97.20;;;;;;1713900;28;20202;-69
2022/06/15 07:32:52;;;;;;;4.40;3.97;;;21.60;97.20;;;;;;1714007;28;20197;-69
2022/06/15 07:33:43;;;;;;;5.57;3.53;;;21.60;97.20;;;;;;1713879;28;20213;-69
2022/06/15 07:34:35;;;;;;;4.40;3.63;;;21.60;97.20;;;;;;1713904;28;20280;-68
2022/06/15 07:35:30;;;;;;;7.40;4.38;;;21.70;97.20;;;;;;1713790;28;20213;-69
2022/06/15 07:36:24;;;;;;;6.35;3.90;;;21.70;97.20;;;;;;1713699;28;20212;-69
2022/06/15 07:37:16;;;;;;;5.45;4.40;;;21.70;97.20;;;;;;1713838;28;20264;-69
2022/06/15 07:38:07;;;;;;;8.40;4.43;;;21.70;97.20;;;;;;1720475;28;20208;-69
2022/06/15 07:38:58;;;;;;;3.70;3.30;;;21.70;97.20;;;;;;1720622;28;20223;-69
2022/06/15 07:39:49;;;;;;;3.80;3.50;;;21.70;97.20;;;;;;1720665;28;20541;-69
2022/06/15 07:40:41;;;;;;;4.17;3.77;;;21.70;97.20;;;;;;1720651;28;20785;-68
2022/06/15 07:41:32;;;;;;;5.07;3.90;;;21.80;97.20;;;;;;1720653;28;20205;-69
2022/06/15 07:42:24;;;;;;;4.28;3.28;;;21.80;97.20;;;;;;1720463;28;20201;-69
2022/06/15 07:43:15;;;;;;;5.65;4.20;;;21.80;97.20;;;;;;1720709;28;20216;-68
2022/06/15 07:44:07;;;;;;;3.90;3.50;;;21.90;97.20;;;;;;1720634;28;20208;-68
2022/06/15 07:44:57;;;;;;;5.25;4.13;;;21.90;97.20;;;;;;1720570;28;20212;-69
2022/06/15 07:45:49;;;;;;;3.63;3.33;;;22.00;97.20;;;;;;1720508;28;20295;-69
2022/06/15 07:46:40;;;;;;;3.63;3.33;;;22.00;97.20;;;;;;1720295;28;20208;-69
2022/06/15 07:49:57;;;;;;;5.68;3.60;;;22.00;97.20;;;;;;1710183;28;20281;-69
2022/06/15 07:50:49;;;;;;;5.13;3.40;;;22.10;97.20;;;;;;1713866;28;20662;-69
2022/06/15 07:51:44;;;;;;;3.63;3.22;;;22.10;97.20;;;;;;1713820;28;20225;-69
2022/06/15 07:52:39;;;;;;;3.83;3.38;;;22.10;97.20;;;;;;1713871;28;20206;-69
2022/06/15 07:53:30;;;;;;;4.45;3.85;;;22.10;97.20;;;;;;1713828;28;20202;-69
2022/06/15 07:54:24;;;;;;;4.03;3.63;;;22.20;97.20;;;;;;1713827;28;20208;-69
2022/06/15 07:55:18;;;;;;;4.43;3.75;;;22.20;97.20;;;;;;1714423;28;20941;-69
2022/06/15 07:56:10;;;;;;;4.68;3.47;;;22.20;97.20;;;;;;1715217;28;20198;-69
2022/06/15 07:57:01;;;;;;;3.40;3.10;;;22.20;97.20;;;;;;1714741;28;20262;-69
2022/06/15 07:57:53;;;;;;;4.30;3.90;;;22.30;97.20;;;;;;1719783;28;20199;-69
2022/06/15 07:58:44;;;;;;;4.13;3.75;;;22.30;97.20;;;;;;1721744;28;20700;-69
2022/06/15 07:59:36;;;;;;;3.77;3.47;;;22.30;97.20;;;;;;1721890;28;20560;-69
2022/06/15 08:00:28;;;;;;;4.70;4.20;;;22.30;97.20;;;;;;1721786;28;20201;-69
2022/06/15 08:01:20;;;;;;;6.60;3.88;;;22.40;97.20;;;;;;1721751;28;20244;-69
2022/06/15 08:02:10;;;;;;;5.07;4.20;;;22.40;97.20;;;;;;1721769;28;20205;-69
2022/06/15 08:03:03;;;;;;;3.80;3.50;;;22.40;97.20;;;;;;1721784;28;20232;-69
2022/06/15 08:03:55;;;;;;;4.30;3.90;;;22.40;97.20;;;;;;1721757;28;20205;-69
2022/06/15 08:04:47;;;;;;;3.35;3.05;;;22.40;97.20;;;;;;1721795;28;20292;-69
2022/06/15 08:05:42;;;;;;;5.30;4.00;;;22.50;97.20;;;;;;1721715;28;20225;-69
2022/06/15 08:06:37;;;;;;;3.83;3.50;;;22.50;97.20;;;;;;1721456;28;20205;-69
2022/06/15 08:07:29;;;;;;;4.18;3.60;;;22.50;97.20;;;;;;1719883;28;20287;-69
2022/06/15 08:08:24;;;;;;;4.60;3.65;;;22.50;97.20;;;;;;1714941;28;20217;-69
2022/06/15 08:09:16;;;;;;;6.32;3.90;;;22.60;97.20;;;;;;1715107;28;20575;-69
2022/06/15 08:10:09;;;;;;;4.10;3.70;;;22.60;97.20;;;;;;1715011;28;20220;-69
2022/06/15 08:11:01;;;;;;;5.07;3.55;;;22.60;97.20;;;;;;1715005;28;20209;-69
2022/06/15 08:13:02;;;;;;;4.35;3.95;;;22.60;97.20;;;;;;1715127;28;20224;-69
2022/06/15 08:13:55;;;;;;;4.60;3.95;;;22.70;97.20;;;;;;1715081;28;20198;-69
2022/06/15 08:14:49;;;;;;;4.32;3.92;;;22.70;97.20;;;;;;1715004;28;20194;-69
2022/06/15 08:15:41;;;;;;;4.80;4.00;;;22.70;97.20;;;;;;1714820;28;20257;-69
2022/06/15 08:16:34;;;;;;;4.97;3.67;;;22.70;97.20;;;;;;1714806;28;20198;-69
2022/06/15 08:17:27;;;;;;;3.80;3.50;;;22.80;97.20;;;;;;1715729;28;20202;-69
2022/06/15 08:18:26;;;;;;;4.00;3.58;;;22.80;97.20;;;;;;1721504;28;20252;-69
2022/06/15 08:19:17;;;;;;;4.05;3.63;;;22.80;97.20;;;;;;1721695;28;20209;-69
2022/06/15 08:20:12;;;;;;;4.20;3.60;;;22.80;97.20;;;;;;1721699;28;20201;-69
2022/06/15 08:21:11;;;;;;;4.00;3.70;;;22.80;97.20;;;;;;1721746;28;20232;-69
2022/06/15 08:22:02;;;;;;;4.25;3.85;;;22.80;97.20;;;;;;1721673;28;20332;-69
2022/06/15 08:23:01;;;;;;;3.70;3.40;;;22.90;97.20;;;;;;1721705;28;20669;-69
2022/06/15 08:23:55;;;;;;;5.15;3.85;;;22.90;97.20;;;;;;1721730;28;20205;-69
2022/06/15 08:24:48;;;;;;;4.55;4.15;;;22.90;97.20;;;;;;1721618;28;20204;-69
2022/06/15 08:25:43;;;;;;;7.10;4.25;;;22.90;97.20;;;;;;1721540;28;20233;-69
2022/06/15 08:26:37;;;;;;;4.60;3.70;;;23.00;97.20;;;;;;1721278;28;20201;-69
2022/06/15 08:27:28;;;;;;;5.75;4.07;;;23.00;97.20;;;;;;1720119;28;20205;-69
2022/06/15 08:28:22;;;;;;;4.53;4.17;;;23.00;97.20;;;;;;1714803;28;20301;-69
2022/06/15 08:29:14;;;;;;;4.88;3.50;;;23.10;97.20;;;;;;1714967;28;20456;-69
2022/06/15 08:30:08;;;;;;;4.82;4.10;;;23.10;97.20;;;;;;1714899;28;20198;-69
2022/06/15 08:31:00;;;;;;;5.68;4.00;;;23.10;97.20;;;;;;1714891;28;20666;-69
2022/06/15 08:31:56;;;;;;;6.50;3.90;;;23.20;97.20;;;;;;1714940;28;20202;-69
2022/06/15 08:32:49;;;;;;;4.45;4.05;;;23.20;97.20;;;;;;1714878;28;20249;-69
2022/06/15 08:33:40;;;;;;;3.83;3.45;;;23.30;97.20;;;;;;1714841;28;20225;-69
2022/06/15 08:34:36;;;;;;;5.07;3.70;;;23.30;97.20;;;;;;1714865;28;20292;-69
2022/06/15 08:35:26;;;;;;;4.22;3.40;;;23.30;97.20;;;;;;1714818;28;20450;-69
2022/06/15 08:36:18;;;;;;;3.67;3.37;;;23.30;97.20;;;;;;1714805;28;20288;-69
2022/06/15 08:37:12;;;;;;;3.78;3.47;;;23.40;97.20;;;;;;1714525;28;20575;-69
2022/06/15 08:38:06;;;;;;;3.88;3.58;;;23.40;97.20;;;;;;1720181;28;20609;-69
2022/06/15 08:38:57;;;;;;;4.50;3.30;;;23.50;97.20;;;;;;1721488;28;20209;-69
2022/06/15 08:39:49;;;;;;;4.63;3.67;;;23.50;97.20;;;;;;1721538;28;20276;-69
2022/06/15 08:40:47;;;;;;;5.10;4.07;;;23.50;97.20;;;;;;1721523;28;20216;-69
2022/06/15 08:41:48;;;;;;;5.55;3.88;;;23.50;97.20;;;;;;1721572;28;20208;-69
2022/06/15 08:42:49;;;;;;;4.07;3.60;;;23.60;97.20;;;;;;1721595;28;20216;-69
2022/06/15 08:44:00;;;;;;;4.28;3.92;;;23.60;97.20;;;;;;1721521;28;20217;-69
2022/06/15 08:45:02;;;;;;;4.07;3.65;;;23.70;97.20;;;;;;1721518;28;20205;-69
2022/06/15 08:45:59;;;;;;;4.93;3.90;;;23.70;97.20;;;;;;1721480;28;20225;-69
2022/06/15 08:46:57;;;;;;;4.43;4.03;;;23.80;97.20;;;;;;1721227;28;20201;-69
2022/06/15 08:48:12;;;;;;;3.97;3.60;;;23.80;97.20;;;;;;1717796;28;20201;-69
2022/06/15 08:49:26;;;;;;;5.50;3.88;;;23.80;97.20;;;;;;1714788;28;20233;-69
2022/06/15 08:50:25;;;;;;;4.97;3.67;;;23.90;97.20;;;;;;1714788;28;20205;-69
2022/06/15 08:51:23;;;;;;;4.75;3.75;;;23.90;97.20;;;;;;1714814;28;20217;-69
2022/06/15 08:52:18;;;;;;;5.32;4.00;;;23.90;97.20;;;;;;1714803;28;20206;-69
2022/06/15 08:53:17;;;;;;;4.85;4.07;;;23.90;97.20;;;;;;1714917;28;20232;-69
2022/06/15 08:54:17;;;;;;;4.30;3.90;;;24.00;97.20;;;;;;1714802;28;20214;-69
2022/06/15 08:55:18;;;;;;;5.43;3.75;;;24.00;97.20;;;;;;1714809;28;20206;-69
2022/06/15 08:56:14;;;;;;;6.00;5.50;;;24.00;97.20;;;;;;1714762;28;20198;-69
2022/06/15 08:57:12;;;;;;;10.77;9.77;;;24.10;97.20;;;;;;1714433;28;20217;-69
2022/06/15 08:58:12;;;;;;;5.75;5.20;;;24.10;97.20;;;;;;1719721;28;20201;-69
2022/06/15 08:59:08;;;;;;;5.40;3.88;;;24.20;97.20;;;;;;1721451;28;20839;-69
2022/06/15 09:00:06;;;;;;;7.25;6.55;;;24.20;97.20;;;;;;1721463;28;20578;-69
2022/06/15 09:01:07;;;;;;;6.78;6.07;;;24.20;97.20;;;;;;1721471;28;20201;-69
2022/06/15 09:02:04;;;;;;;8.82;5.78;;;24.30;97.20;;;;;;1721358;28;20213;-69
2022/06/15 09:03:11;;;;;;;5.75;4.82;;;24.30;97.20;;;;;;1721496;28;20280;-69
2022/06/15 09:04:11;;;;;;;9.25;4.10;;;24.40;97.20;;;;;;1721462;28;20202;-69
2022/06/15 09:05:12;;;;;;;4.40;3.97;;;24.40;97.20;;;;;;1721530;28;20201;-69
2022/06/15 09:06:15;;;;;;;9.13;3.70;;;24.50;97.20;;;;;;1720951;28;20274;-69
2022/06/15 09:07:30;;;;;;;5.32;4.40;;;24.50;97.20;;;;;;1721207;28;20198;-69
2022/06/15 09:08:44;;;;;;;5.38;4.63;;;24.60;97.20;;;;;;1714605;28;20212;-69
2022/06/15 09:09:53;;;;;;;5.97;4.22;;;24.60;97.20;;;;;;1714708;28;20213;-69
2022/06/15 09:10:50;;;;;;;7.05;6.30;;;24.70;97.20;;;;;;1714682;28;20693;-69
2022/06/15 09:11:52;;;;;;;6.18;5.57;;;24.70;97.20;;;;;;1714636;28;20209;-69
2022/06/15 09:12:55;;;;;;;7.70;5.45;;;24.70;97.20;;;;;;1714745;28;20213;-69
2022/06/15 09:13:58;;;;;;;7.28;5.20;;;24.80;97.20;;;;;;1714678;28;20213;-69
2022/06/15 09:14:56;;;;;;;5.55;5.13;;;24.80;97.20;;;;;;1714682;28;20206;-69
2022/06/15 09:15:55;;;;;;;4.53;4.13;;;24.80;97.20;;;;;;1714454;28;20236;-70
2022/06/15 09:16:56;;;;;;;5.28;4.05;;;24.80;97.20;;;;;;1714397;28;20206;-69
2022/06/15 09:17:51;;;;;;;4.75;4.35;;;24.90;97.20;;;;;;1716815;28;20277;-69
2022/06/15 09:18:49;;;;;;;5.47;4.80;;;24.90;97.20;;;;;;1721313;28;20198;-69
2022/06/15 09:19:45;;;;;;;5.93;5.32;;;24.90;97.20;;;;;;1721320;28;20726;-69
2022/06/15 09:20:41;;;;;;;4.90;4.50;;;25.00;97.20;;;;;;1721335;28;20209;-69
2022/06/15 09:21:36;;;;;;;5.40;4.90;;;25.00;97.20;;;;;;1721234;28;20198;-70
2022/06/15 09:22:32;;;;;;;5.43;4.80;;;25.10;97.20;;;;;;1721302;28;20547;-70
2022/06/15 09:23:29;;;;;;;5.78;5.03;;;25.10;97.20;;;;;;1721311;28;20205;-69
2022/06/15 09:24:27;;;;;;;8.75;8.05;;;25.10;97.20;;;;;;1721290;28;20212;-70
2022/06/15 09:25:24;;;;;;;5.60;4.95;;;25.10;97.20;;;;;;1721230;28;20288;-71
2022/06/15 09:26:22;;;;;;;6.78;3.80;;;25.20;97.20;;;;;;1721348;28;20208;-70
2022/06/15 09:27:19;;;;;;;7.38;4.75;;;25.20;97.20;;;;;;1721222;28;20210;-70
2022/06/15 09:28:18;;;;;;;5.80;4.43;;;25.30;97.20;;;;;;1715724;28;20232;-70
2022/06/15 09:29:14;;;;;;;4.88;3.90;;;25.30;97.20;;;;;;1714834;28;20209;-70
2022/06/15 09:30:09;;;;;;;5.45;4.25;;;25.30;97.20;;;;;;1714757;28;20548;-70
2022/06/15 09:31:05;;;;;;;4.18;3.80;;;25.40;97.20;;;;;;1718106;28;20673;-71
2022/06/15 09:31:59;;;;;;;5.55;3.60;;;25.40;97.20;;;;;;1721666;28;20212;-70
2022/06/15 09:32:54;;;;;;;4.60;4.10;;;25.40;97.20;;;;;;1721349;28;20205;-70
2022/06/15 09:33:52;;;;;;;3.85;3.55;;;25.40;97.20;;;;;;1721000;28;20205;-70
2022/06/15 09:34:49;;;;;;;4.30;3.90;;;25.50;97.20;;;;;;1720816;28;20252;-70
2022/06/15 09:35:44;;;;;;;5.55;4.18;;;25.50;97.20;;;;;;1720966;28;20313;-70
2022/06/15 09:36:44;;;;;;;6.88;3.70;;;25.50;97.20;;;;;;1720704;28;20189;-70
2022/06/15 09:37:39;;;;;;;3.50;3.20;;;25.50;97.20;;;;;;1720290;28;20221;-71
2022/06/15 09:38:32;;;;;;;6.05;4.70;;;25.60;97.20;;;;;;1714520;28;20210;-70
2022/06/15 09:39:26;;;;;;;4.50;4.10;;;25.60;97.20;;;;;;1714549;28;20213;-70
2022/06/15 09:40:20;;;;;;;5.38;3.95;;;25.60;97.20;;;;;;1714481;28;20205;-70
2022/06/15 09:41:19;;;;;;;4.70;4.03;;;25.70;97.20;;;;;;1714496;28;20206;-70
2022/06/15 09:42:18;;;;;;;4.38;3.97;;;25.70;97.20;;;;;;1714655;28;20198;-69
2022/06/15 09:43:16;;;;;;;7.23;3.80;;;25.80;97.20;;;;;;1714513;28;20202;-69